createdAt,value
2022-11-18T00:00:52.508Z,9.8
2022-11-18T00:13:24.745Z,9.9
2022-11-18T00:19:39.797Z,9.8
2022-11-18T00:31:54.165Z,9.8
2022-11-18T00:44:39.314Z,9.6
2022-11-18T00:50:43.933Z,9.8
2022-11-18T00:57:06.869Z,9.9
2022-11-18T01:03:10.094Z,9.8
2022-11-18T01:09:22.065Z,9.8
2022-11-18T01:15:22.710Z,9.9
2022-11-18T01:33:46.442Z,9.7
2022-11-18T01:39:39.163Z,9.8
2022-11-18T01:51:56.827Z,9.5
2022-11-18T02:04:19.509Z,9.5
2022-11-18T02:16:08.101Z,9.6
2022-11-18T02:28:15.130Z,9.6
2022-11-18T02:34:37.189Z,9.5
2022-11-18T02:40:54.329Z,9.6
2022-11-18T02:47:01.446Z,9.5
2022-11-18T02:59:24.648Z,9.6
2022-11-18T03:05:33.132Z,9.8
2022-11-18T03:11:41.258Z,9.8
2022-11-18T03:23:34.511Z,9.7
2022-11-18T03:30:07.064Z,9.7
2022-11-18T03:42:25.883Z,9.7
2022-11-18T03:48:39.680Z,9.8
2022-11-18T03:55:02.765Z,9.6
2022-11-18T04:07:47.069Z,9.8
2022-11-18T04:13:46.161Z,9.8
2022-11-18T04:19:55.209Z,9.9
2022-11-18T04:25:46.942Z,9.9
2022-11-18T04:31:36.650Z,9.3
2022-11-18T04:44:11.839Z,9.7
2022-11-18T04:56:22.214Z,9.7
2022-11-18T05:08:33.131Z,9.7
2022-11-18T06:05:48.497Z,9.4
2022-11-18T06:49:09.403Z,9.1
2022-11-18T07:13:47.857Z,9
2022-11-18T07:19:53.029Z,8.9
2022-11-18T07:25:45.453Z,8.6
2022-11-18T07:31:38.975Z,8.8
2022-11-18T07:37:32.571Z,8.8
2022-11-18T07:43:23.177Z,8.9
2022-11-18T07:49:17.382Z,8.8
2022-11-18T07:55:14.713Z,8.9
2022-11-18T08:01:07.056Z,9
2022-11-18T08:06:58.670Z,9.1
2022-11-18T08:12:53.727Z,9.2
2022-11-18T08:18:44.391Z,9
2022-11-18T08:24:36.219Z,9.1
2022-11-18T08:30:31.898Z,9.2
2022-11-18T08:36:28.960Z,9.3
2022-11-18T08:42:24.296Z,9.4
2022-11-18T08:48:26.814Z,9.3
2022-11-18T08:54:19.601Z,9.5
2022-11-18T09:00:11.079Z,9.6
2022-11-18T09:06:06.011Z,9.5
2022-11-18T09:12:05.971Z,9.6
2022-11-18T09:17:59.687Z,9.6
2022-11-18T09:23:51.965Z,9.8
2022-11-18T09:29:42.562Z,9.7
2022-11-18T09:35:35.664Z,9.9
2022-11-18T09:41:28.036Z,10.1
2022-11-18T09:47:27.696Z,10
2022-11-18T09:53:21.507Z,10.1
2022-11-18T09:59:23.270Z,10.2
2022-11-18T10:11:40.340Z,10.4
2022-11-18T10:17:41.643Z,10.6
2022-11-18T10:23:34.465Z,10.6
2022-11-18T10:35:19.312Z,10.9
2022-11-18T10:41:10.850Z,11
2022-11-18T10:47:00.876Z,11
2022-11-18T10:52:51.526Z,11.1
2022-11-18T10:58:41.895Z,11.1
2022-11-18T11:04:32.969Z,11.1
2022-11-18T11:10:24.982Z,11.1
2022-11-18T11:16:19.145Z,11.4
2022-11-18T11:22:15.663Z,11.5
2022-11-18T11:28:14.440Z,11.8
2022-11-18T11:34:05.839Z,12
2022-11-18T11:39:54.176Z,12.1
2022-11-18T11:45:44.436Z,12
2022-11-18T11:51:34.850Z,11.9
2022-11-18T11:57:27.232Z,11.9
2022-11-18T12:03:17.980Z,11.9
2022-11-18T12:09:09.712Z,11.9
2022-11-18T12:15:01.111Z,11.9
2022-11-18T12:20:52.636Z,11.9
2022-11-18T12:26:43.462Z,11.9
2022-11-18T12:32:34.019Z,12
2022-11-18T12:38:25.381Z,12
2022-11-18T12:44:17.152Z,12.1
2022-11-18T12:50:09.455Z,12.1
2022-11-18T12:56:01.089Z,12.1
2022-11-18T13:01:51.392Z,12.1
2022-11-18T13:07:42.550Z,12.3
2022-11-18T13:13:31.825Z,12.5
2022-11-18T13:19:21.658Z,12.7
2022-11-18T13:25:12.253Z,12.4
2022-11-18T13:31:02.754Z,12.4
2022-11-18T13:36:53.407Z,12.3
2022-11-18T13:42:44.433Z,12.3
2022-11-18T13:48:34.654Z,12.4
2022-11-18T13:54:25.375Z,12.5
2022-11-18T14:00:16.391Z,12.5
2022-11-18T14:06:07.235Z,12.3
2022-11-18T14:11:58.731Z,12.4
2022-11-18T14:17:48.519Z,12.3
2022-11-18T14:23:42.321Z,12.3
2022-11-18T14:29:33.422Z,12.3
2022-11-18T14:35:27.274Z,12.2
2022-11-18T14:41:23.336Z,12.2
2022-11-18T14:47:14.158Z,12.2
2022-11-18T14:53:04.679Z,12.1
2022-11-18T14:58:55.159Z,12
2022-11-18T15:04:44.820Z,11.9
2022-11-18T15:10:37.488Z,11.9
2022-11-18T15:16:28.122Z,11.7
2022-11-18T15:22:17.031Z,11.7
2022-11-18T15:28:06.345Z,11.8
2022-11-18T15:33:58.871Z,11.6
2022-11-18T15:40:07.486Z,11.5
2022-11-18T15:45:57.700Z,11.6
2022-11-18T15:51:50.075Z,11.6
2022-11-18T15:57:43.886Z,11.5
2022-11-18T16:03:36.283Z,11.5
2022-11-18T16:09:26.880Z,11.3
2022-11-18T16:15:18.691Z,11.4
2022-11-18T16:21:12.068Z,11.3
2022-11-18T16:27:04.555Z,11.3
2022-11-18T16:32:56.673Z,11.2
2022-11-18T16:38:46.929Z,11.2
2022-11-18T16:44:37.776Z,11.1
2022-11-18T16:50:27.793Z,11.1
2022-11-18T16:56:18.752Z,11.1
2022-11-18T17:02:13.522Z,11.1
2022-11-18T17:08:04.909Z,11
2022-11-18T17:13:58.168Z,10.9
2022-11-18T17:19:50.463Z,10.9
2022-11-18T17:25:41.952Z,10.8
2022-11-18T17:31:33.748Z,10.8
2022-11-18T17:37:23.360Z,10.8
2022-11-18T17:43:17.990Z,10.6
2022-11-18T17:49:07.997Z,10.7
2022-11-18T17:54:57.914Z,10.7
2022-11-18T18:00:48.441Z,10.5
2022-11-18T18:06:40.744Z,10.5
2022-11-18T18:12:29.974Z,10.4
2022-11-18T18:18:18.942Z,10.3
2022-11-18T18:24:07.696Z,10.4
2022-11-18T18:29:57.828Z,10.4
2022-11-18T18:35:48.975Z,10.3
2022-11-18T18:41:37.841Z,10.1
2022-11-18T18:47:27.201Z,10.2
2022-11-18T18:53:31.983Z,10.1
2022-11-18T18:59:44.931Z,10.1
2022-11-18T19:06:12.547Z,10.2
2022-11-18T19:12:46.058Z,10
2022-11-18T19:18:38.166Z,10.1
2022-11-18T19:24:48.467Z,10.1
2022-11-18T19:37:38.293Z,9.7
2022-11-18T19:43:57.731Z,9.6
2022-11-18T19:50:04.041Z,9.9
2022-11-18T19:56:11.696Z,9.9
2022-11-18T20:14:46.734Z,9.6
2022-11-18T20:20:39.166Z,9.4
2022-11-18T20:26:34.239Z,9.6
2022-11-18T20:32:32.030Z,9.7
2022-11-18T20:38:22.793Z,9.5
2022-11-18T20:44:20.499Z,9.3
2022-11-18T20:50:16.364Z,9.4
2022-11-18T20:56:10.966Z,9.4
2022-11-18T21:02:09.487Z,9.5
2022-11-18T21:08:04.674Z,9.4
2022-11-18T21:13:56.801Z,9.3
2022-11-18T21:20:13.619Z,9.3
2022-11-18T21:26:32.867Z,9.4
2022-11-18T21:32:31.827Z,9.4
2022-11-18T21:38:36.578Z,9.5
2022-11-18T21:50:33.602Z,9.3
2022-11-18T21:56:29.587Z,9.4
2022-11-18T22:02:34.114Z,9.3
2022-11-18T22:08:30.792Z,9.4
2022-11-18T22:14:23.461Z,9.2
2022-11-18T22:20:15.753Z,9.1
2022-11-18T22:26:24.346Z,8.8
2022-11-18T22:32:21.296Z,8.9
2022-11-18T22:44:20.008Z,9.3
2022-11-18T22:50:15.603Z,9.3
2022-11-18T22:56:08.633Z,9.2
2022-11-18T23:02:17.083Z,9.3
2022-11-18T23:08:22.233Z,9.2
2022-11-18T23:14:25.606Z,8.9
2022-11-18T23:20:32.074Z,9.3
2022-11-18T23:26:30.959Z,9.2
2022-11-18T23:38:44.216Z,9.2
2022-11-18T23:56:42.765Z,9.2
